Portada
METAR-TAF:

METAR-TAF

Aeroports :

Retalhuleu, Guatemala

latitud: 14-32N, longitud: 091-40W, altitud: 239 m

Observació

L'informe es va fer fa 10 hores i 7 minuts, a les 23:00 UTC
Vent 6 kt del Est
Temperatura 25°C
Humitat 89%
Pressió 1012 hPa
Visibilitat: 9000 m
Cel ennuvolat a una alçada de 1200 ft
Cel cobert a una alçada de 8000 ft
plugim

METAR: MGRT 052300Z 09006KT 9000 -DZ BKN012 OVC080 25/23 Q1012 A2988 VOL,SANTA MARIA Y SANTIAGUITO EN ACTIVIDAD

Hora: 03:07 (09:07 UTC)


TAF: manca

Observacions i pronòstics meteorològics de més de 4000 aeroports (METAR i TAF).

Les estacions disponibles són els punts grocs i vermells al mapa.

Posi el ratolí al punt desitjat per veure el nom de l'estació.

Feu clic per veure les observacions i els pronòstics meteorològics.

Per canviar el mapa: feu clic els botons verds amb una creu de color negre per apropar; al botó verd amb un guió per allunyar la imatge; o en les fletxes verdes per a mapes adjacents.


METAR-TAF: